Time;durP1;ratioP1;P1;durP2;ratioP2;P2;SDS_P1;SDS_P2;PMS_P1;PMS_P2;Temp;Humidity;BMP_temperature;BMP_pressure;BME280_temperature;BME280_humidity;BME280_pressure;Samples;Min_cycle;Max_cycle;Signal;HPM_P1;HPM_P2
2023/09/03 00:00:02;;;;;;;16.03;13.13;;;;;;;14.97;100.00;101593.66;691021;28;1938;-65
2023/09/03 00:00:31;;;;;;;16.52;12.88;;;;;;;14.97;100.00;101591.03;692566;28;770;-65
2023/09/03 00:00:52;;;;;;;17.63;13.10;;;;;;;14.96;100.00;101592.78;690833;28;4570;-65
2023/09/03 00:01:12;;;;;;;17.25;12.93;;;;;;;14.95;100.00;101591.06;692868;28;908;-65
2023/09/03 00:01:33;;;;;;;15.70;12.70;;;;;;;14.93;100.00;101587.53;692562;28;1095;-65
2023/09/03 00:01:53;;;;;;;16.53;13.30;;;;;;;14.91;100.00;101586.69;691183;28;2386;-65
2023/09/03 00:02:13;;;;;;;18.00;13.80;;;;;;;14.90;100.00;101586.72;692418;28;1181;-65
2023/09/03 00:02:34;;;;;;;18.00;13.50;;;;;;;14.91;100.00;101586.69;690048;28;860;-65
2023/09/03 00:02:54;;;;;;;15.63;12.80;;;;;;;14.91;100.00;101586.69;688460;28;2825;-65
2023/09/03 00:03:15;;;;;;;16.15;12.98;;;;;;;14.92;100.00;101587.56;686331;28;1096;-65
2023/09/03 00:03:35;;;;;;;17.17;12.53;;;;;;;14.91;100.00;101586.69;687040;28;777;-65
2023/09/03 00:03:55;;;;;;;15.77;12.88;;;;;;;14.92;100.00;101593.69;685369;28;4547;-66
2023/09/03 00:04:16;;;;;;;16.83;13.33;;;;;;;14.91;100.00;101588.44;687529;28;873;-65
2023/09/03 00:04:36;;;;;;;17.35;13.23;;;;;;;14.89;100.00;101585.81;689763;28;878;-66
2023/09/03 00:04:56;;;;;;;16.67;13.10;;;;;;;14.90;100.00;101590.22;688080;28;1808;-65
2023/09/03 00:05:17;;;;;;;17.03;13.20;;;;;;;14.89;100.00;101585.81;693161;28;939;-66
2023/09/03 00:05:37;;;;;;;16.23;12.57;;;;;;;14.90;100.00;101590.22;692414;28;1408;-65
2023/09/03 00:05:58;;;;;;;16.07;12.47;;;;;;;14.91;100.00;101593.69;691284;28;1773;-65
2023/09/03 00:06:18;;;;;;;19.15;13.60;;;;;;;14.90;100.00;101586.72;689208;28;2743;-65
2023/09/03 00:06:38;;;;;;;18.17;13.60;;;;;;;14.89;100.00;101588.44;687023;28;4586;-65
2023/09/03 00:06:59;;;;;;;16.83;13.47;;;;;;;14.89;100.00;101587.59;688519;28;1067;-65
2023/09/03 00:07:19;;;;;;;17.13;13.68;;;;;;;14.87;100.00;101590.25;690021;28;761;-65
2023/09/03 00:07:39;;;;;;;16.47;13.30;;;;;;;14.87;100.00;101581.44;689853;28;836;-65
2023/09/03 00:08:00;;;;;;;17.03;13.20;;;;;;;14.87;100.00;101584.97;688834;28;2422;-65
2023/09/03 00:08:21;;;;;;;17.40;13.27;;;;;;;14.88;100.00;101585.84;692539;28;1242;-65
2023/09/03 00:08:42;;;;;;;17.58;13.10;;;;;;;14.87;100.00;101589.34;692931;28;920;-65
2023/09/03 00:09:06;;;;;;;17.60;13.30;;;;;;;14.86;100.00;101585.00;691674;28;1036;-66
2023/09/03 00:09:26;;;;;;;17.15;13.10;;;;;;;14.87;100.00;101590.25;692887;28;948;-65
2023/09/03 00:09:47;;;;;;;17.77;13.07;;;;;;;14.88;100.00;101584.06;692431;28;4806;-66
2023/09/03 00:10:07;;;;;;;16.93;13.00;;;;;;;14.87;100.00;101589.34;691633;28;1741;-65
2023/09/03 00:10:28;;;;;;;17.90;13.23;;;;;;;14.87;100.00;101578.81;692444;28;1029;-65
2023/09/03 00:10:53;;;;;;;16.87;13.33;;;;;;;14.86;100.00;101588.47;692978;28;897;-65
2023/09/03 00:11:13;;;;;;;17.00;13.57;;;;;;;14.86;100.00;101590.25;691471;28;1255;-65
2023/09/03 00:11:34;;;;;;;17.33;12.77;;;;;;;14.86;100.00;101582.34;692597;28;1291;-65
2023/09/03 00:11:54;;;;;;;18.07;13.53;;;;;;;14.86;100.00;101592.88;691782;28;2413;-65
2023/09/03 00:12:14;;;;;;;17.97;13.20;;;;;;;14.86;100.00;101587.63;693070;28;1977;-65
2023/09/03 00:12:35;;;;;;;16.83;12.95;;;;;;;14.85;100.00;101584.09;692599;28;872;-65
2023/09/03 00:12:55;;;;;;;15.27;12.77;;;;;;;14.86;100.00;101580.59;690861;28;4386;-65
2023/09/03 00:13:15;;;;;;;15.38;12.52;;;;;;;14.85;100.00;101581.47;692677;28;1002;-65
2023/09/03 00:13:36;;;;;;;15.43;13.07;;;;;;;14.85;100.00;101580.59;692427;28;1165;-65
2023/09/03 00:13:56;;;;;;;16.47;12.80;;;;;;;14.81;100.00;101583.28;691909;28;1535;-65
2023/09/03 00:14:17;;;;;;;15.70;12.25;;;;;;;14.82;100.00;101584.13;693063;28;844;-65
2023/09/03 00:14:37;;;;;;;15.13;12.23;;;;;;;14.82;100.00;101586.75;692203;28;1484;-65
2023/09/03 00:14:58;;;;;;;16.23;12.30;;;;;;;14.80;100.00;101584.16;691409;28;888;-65
2023/09/03 00:15:23;;;;;;;18.53;12.77;;;;;;;14.79;100.00;101587.66;693046;28;783;-65
2023/09/03 00:15:44;;;;;;;17.90;13.25;;;;;;;14.78;100.00;101585.91;691960;28;4664;-66
2023/09/03 00:16:04;;;;;;;15.10;12.30;;;;;;;14.77;100.00;101583.28;691693;28;2056;-65
2023/09/03 00:16:26;;;;;;;16.17;12.43;;;;;;;14.78;100.00;101585.03;692490;28;3901;-65
2023/09/03 00:16:46;;;;;;;16.30;12.80;;;;;;;14.78;100.00;101579.78;692532;28;1419;-65
2023/09/03 00:17:06;;;;;;;17.40;13.00;;;;;;;14.78;100.00;101585.03;691507;28;1720;-65
2023/09/03 00:17:27;;;;;;;16.50;12.40;;;;;;;14.78;100.00;101585.91;692771;28;785;-65
2023/09/03 00:17:47;;;;;;;16.60;12.77;;;;;;;14.78;100.00;101583.25;692681;28;1327;-65
2023/09/03 00:18:11;;;;;;;16.07;12.47;;;;;;;14.77;100.00;101586.81;691805;28;1575;-65
2023/09/03 00:18:32;;;;;;;16.27;12.50;;;;;;;14.77;100.00;101583.28;692569;28;1003;-65
2023/09/03 00:18:52;;;;;;;18.15;12.75;;;;;;;14.75;100.00;101582.44;687421;28;4384;-65
2023/09/03 00:19:13;;;;;;;17.03;12.93;;;;;;;14.75;100.00;101587.69;689916;28;1295;-65
2023/09/03 00:19:33;;;;;;;17.75;12.98;;;;;;;14.72;100.00;101583.31;690252;28;924;-65
2023/09/03 00:19:53;;;;;;;17.23;12.37;;;;;;;14.74;100.00;101583.31;688225;28;1614;-65
2023/09/03 00:20:14;;;;;;;16.30;12.17;;;;;;;14.72;100.00;101588.59;689907;28;1065;-65
2023/09/03 00:20:34;;;;;;;16.45;12.18;;;;;;;14.72;100.00;101583.31;689993;28;1407;-65
2023/09/03 00:21:00;;;;;;;16.20;12.57;;;;;;;14.73;100.00;101584.19;691272;28;2198;-64
2023/09/03 00:21:21;;;;;;;15.68;12.52;;;;;;;14.70;100.00;101585.06;692526;28;999;-65
2023/09/03 00:21:41;;;;;;;16.13;12.60;;;;;;;14.69;100.00;101586.00;689350;28;4385;-65
2023/09/03 00:22:02;;;;;;;16.17;12.38;;;;;;;14.69;100.00;101586.00;688320;28;1762;-65
2023/09/03 00:22:23;;;;;;;15.65;12.05;;;;;;;14.71;100.00;101588.59;690167;28;1286;-65
2023/09/03 00:22:43;;;;;;;15.83;12.00;;;;;;;14.72;100.00;101585.09;689737;28;1255;-65
2023/09/03 00:23:04;;;;;;;15.70;12.53;;;;;;;14.75;100.00;101587.69;687925;28;1758;-65
2023/09/03 00:23:25;;;;;;;15.23;12.35;;;;;;;14.74;100.00;101586.81;690158;28;892;-65
2023/09/03 00:23:45;;;;;;;16.30;12.47;;;;;;;14.73;100.00;101590.34;690074;28;1249;-65
2023/09/03 00:24:06;;;;;;;16.38;12.10;;;;;;;14.71;100.00;101589.47;688319;28;1505;-65
2023/09/03 00:24:26;;;;;;;17.03;11.93;;;;;;;14.70;100.00;101586.84;689907;28;1263;-65
2023/09/03 00:24:46;;;;;;;15.68;11.85;;;;;;;14.71;100.00;101591.25;689569;28;4539;-65
2023/09/03 00:25:07;;;;;;;15.13;12.20;;;;;;;14.70;100.00;101585.06;688209;28;2164;-65
2023/09/03 00:25:28;;;;;;;15.93;12.65;;;;;;;14.69;100.00;101590.34;690108;28;1150;-65
2023/09/03 00:25:48;;;;;;;15.60;12.80;;;;;;;14.67;100.00;101582.47;692550;28;1345;-65
2023/09/03 00:26:17;;;;;;;16.95;12.77;;;;;;;14.67;100.00;101579.84;691047;28;2245;-65
2023/09/03 00:26:41;;;;;;;15.82;12.75;;;;;;;14.67;100.00;101589.50;687540;28;1312;-65
2023/09/03 00:27:01;;;;;;;16.67;13.07;;;;;;;14.68;100.00;101591.28;686944;28;1743;-65
2023/09/03 00:27:21;;;;;;;18.70;13.85;;;;;;;14.68;100.00;101592.13;688412;28;1317;-65
2023/09/03 00:27:42;;;;;;;19.57;13.80;;;;;;;14.67;100.00;101587.75;688957;28;4612;-65
2023/09/03 00:28:05;;;;;;;16.57;13.07;;;;;;;14.67;100.00;101584.25;687840;28;2374;-65
2023/09/03 00:28:31;;;;;;;17.13;12.88;;;;;;;14.68;100.00;101588.63;689686;28;880;-65
2023/09/03 00:28:51;;;;;;;16.45;12.40;;;;;;;14.63;100.00;101581.66;692182;28;890;-65
2023/09/03 00:29:12;;;;;;;16.20;12.57;;;;;;;14.63;100.00;101572.84;689670;28;1711;-64
2023/09/03 00:29:34;;;;;;;16.83;12.68;;;;;;;14.65;100.00;101579.00;692583;28;860;-65
2023/09/03 00:29:54;;;;;;;17.73;13.30;;;;;;;14.67;100.00;101581.63;687479;28;2450;-66
2023/09/03 00:30:15;;;;;;;17.23;13.97;;;;;;;14.67;100.00;101578.97;686634;28;869;-65
2023/09/03 00:30:35;;;;;;;17.25;12.80;;;;;;;14.67;100.00;101576.34;687423;28;892;-65
2023/09/03 00:31:07;;;;;;;18.20;13.40;;;;;;;14.67;100.00;101579.84;685215;28;4310;-66
2023/09/03 00:31:28;;;;;;;17.55;13.45;;;;;;;14.68;100.00;101583.38;685280;28;1889;-65
2023/09/03 00:31:48;;;;;;;17.98;13.27;;;;;;;14.67;100.00;101581.63;687214;28;876;-65
2023/09/03 00:32:09;;;;;;;16.75;12.65;;;;;;;14.66;100.00;101579.88;686166;28;1934;-65
2023/09/03 00:32:29;;;;;;;18.15;12.88;;;;;;;14.65;100.00;101576.38;686447;28;1328;-65
2023/09/03 00:32:49;;;;;;;18.77;12.90;;;;;;;14.66;100.00;101579.88;687439;28;1353;-65
2023/09/03 00:33:10;;;;;;;17.73;13.10;;;;;;;14.66;100.00;101577.22;686002;28;1716;-65
2023/09/03 00:33:31;;;;;;;16.60;13.23;;;;;;;14.65;100.00;101576.38;686379;28;766;-65
2023/09/03 00:33:52;;;;;;;16.88;12.93;;;;;;;14.66;100.00;101577.22;683632;28;4305;-65
2023/09/03 00:34:12;;;;;;;17.73;12.88;;;;;;;14.67;100.00;101576.34;682137;28;2038;-65
2023/09/03 00:34:32;;;;;;;16.83;13.27;;;;;;;14.67;100.00;101578.97;684301;28;1786;-65
2023/09/03 00:34:53;;;;;;;17.58;13.50;;;;;;;14.67;100.00;101582.47;684823;28;1612;-65
2023/09/03 00:35:13;;;;;;;17.70;13.63;;;;;;;14.64;100.00;101571.97;681095;28;1212;-65
2023/09/03 00:35:33;;;;;;;17.27;13.60;;;;;;;14.64;100.00;101577.25;682102;28;1213;-66
2023/09/03 00:35:54;;;;;;;16.95;13.48;;;;;;;14.63;100.00;101576.38;685058;28;2302;-65
2023/09/03 00:36:15;;;;;;;17.63;13.32;;;;;;;14.64;100.00;101572.84;685927;28;896;-65
2023/09/03 00:36:35;;;;;;;18.63;13.67;;;;;;;14.66;100.00;101574.59;688180;28;821;-65
2023/09/03 00:36:55;;;;;;;20.23;13.83;;;;;;;14.64;100.00;101578.09;685910;28;4533;-65
2023/09/03 00:37:16;;;;;;;21.60;14.73;;;;;;;14.66;100.00;101577.22;689691;28;1236;-65
2023/09/03 00:37:36;;;;;;;19.80;14.43;;;;;;;14.63;100.00;101571.13;689761;28;964;-65
2023/09/03 00:37:59;;;;;;;18.52;14.23;;;;;;;14.65;100.00;101579.00;689252;28;1978;-65
2023/09/03 00:38:19;;;;;;;17.77;13.40;;;;;;;14.64;100.00;101570.22;690019;28;781;-65
2023/09/03 00:38:39;;;;;;;18.27;13.73;;;;;;;14.64;100.00;101572.84;689380;28;5512;-65
2023/09/03 00:39:00;;;;;;;20.40;14.07;;;;;;;14.64;100.00;101566.72;685928;28;2155;-65
2023/09/03 00:39:20;;;;;;;17.17;13.35;;;;;;;14.66;100.00;101574.59;684640;28;1356;-65
2023/09/03 00:39:41;;;;;;;18.17;14.13;;;;;;;14.66;100.00;101570.19;683325;28;4318;-65
2023/09/03 00:40:02;;;;;;;18.00;14.18;;;;;;;14.65;100.00;101571.09;682896;28;1899;-65
2023/09/03 00:40:23;;;;;;;17.90;14.20;;;;;;;14.66;100.00;101569.34;684361;28;1378;-65
2023/09/03 00:40:43;;;;;;;19.17;14.43;;;;;;;14.66;100.00;101571.97;684555;28;1149;-65
2023/09/03 00:41:04;;;;;;;18.00;13.40;;;;;;;14.64;100.00;101567.56;683071;28;1801;-65
2023/09/03 00:41:25;;;;;;;20.20;14.20;;;;;;;14.64;100.00;101570.22;686974;28;1227;-65
2023/09/03 00:41:45;;;;;;;20.67;14.33;;;;;;;14.68;100.00;101570.22;686998;28;1059;-65
2023/09/03 00:42:07;;;;;;;19.77;13.53;;;;;;;14.67;100.00;101571.94;684480;28;2297;-65
2023/09/03 00:42:27;;;;;;;19.50;14.27;;;;;;;14.67;100.00;101573.72;683177;28;1591;-64
2023/09/03 00:42:47;;;;;;;18.60;14.10;;;;;;;14.67;100.00;101574.59;683878;28;4366;-65
2023/09/03 00:43:08;;;;;;;18.00;13.53;;;;;;;14.68;100.00;101567.59;683495;28;1786;-65
2023/09/03 00:43:28;;;;;;;19.20;13.90;;;;;;;14.66;100.00;101575.47;686809;28;905;-65
2023/09/03 00:43:49;;;;;;;18.73;14.17;;;;;;;14.67;100.00;101571.09;686622;28;1442;-65
2023/09/03 00:44:09;;;;;;;19.20;13.88;;;;;;;14.67;100.00;101571.94;685240;28;1717;-65
2023/09/03 00:44:30;;;;;;;18.83;13.27;;;;;;;14.69;100.00;101569.31;685726;28;1277;-65
2023/09/03 00:44:50;;;;;;;18.02;13.40;;;;;;;14.70;100.00;101573.69;685737;28;798;-65
2023/09/03 00:45:10;;;;;;;18.43;13.83;;;;;;;14.70;100.00;101576.31;682993;28;1993;-65
2023/09/03 00:45:31;;;;;;;19.50;14.23;;;;;;;14.68;100.00;101571.06;681938;29;1227;-65
2023/09/03 00:45:52;;;;;;;20.80;14.80;;;;;;;14.69;100.00;101571.94;681196;28;4353;-65
2023/09/03 00:46:12;;;;;;;18.58;14.50;;;;;;;14.70;100.00;101571.06;682830;28;2422;-65
2023/09/03 00:46:32;;;;;;;18.77;13.97;;;;;;;14.69;100.00;101574.56;685590;28;2034;-65
2023/09/03 00:46:53;;;;;;;18.75;14.73;;;;;;;14.67;100.00;101571.09;687047;28;1712;-65
2023/09/03 00:47:13;;;;;;;19.07;14.20;;;;;;;14.68;100.00;101567.59;685856;28;1853;-65
2023/09/03 00:47:34;;;;;;;19.23;14.20;;;;;;;14.68;100.00;101572.84;689940;28;905;-65
2023/09/03 00:47:54;;;;;;;18.30;13.43;;;;;;;14.68;100.00;101575.47;688474;28;1484;-65
2023/09/03 00:48:17;;;;;;;19.08;13.20;;;;;;;14.69;100.00;101571.94;686398;28;1348;-65
2023/09/03 00:48:39;;;;;;;19.15;13.75;;;;;;;14.67;100.00;101566.69;686161;28;4640;-64
2023/09/03 00:48:59;;;;;;;19.35;13.45;;;;;;;14.68;100.00;101573.72;685381;28;1927;-65
2023/09/03 00:49:21;;;;;;;18.50;13.13;;;;;;;14.68;100.00;101575.47;683173;28;1387;-65
2023/09/03 00:49:42;;;;;;;20.88;13.43;;;;;;;14.68;100.00;101576.34;682773;28;1371;-65
2023/09/03 00:50:03;;;;;;;19.73;13.75;;;;;;;14.68;100.00;101572.84;683063;28;1746;-65
2023/09/03 00:50:24;;;;;;;19.25;13.18;;;;;;;14.68;100.00;101572.84;685918;28;997;-65
2023/09/03 00:50:48;;;;;;;21.10;14.00;;;;;;;14.65;100.00;101568.47;685211;28;1021;-65
2023/09/03 00:51:09;;;;;;;18.90;13.75;;;;;;;14.64;100.00;101571.97;683489;28;1500;-65
2023/09/03 00:51:30;;;;;;;18.52;13.40;;;;;;;14.61;100.00;101570.22;685855;28;889;-65
2023/09/03 00:51:53;;;;;;;17.60;13.52;;;;;;;14.61;100.00;101572.84;685522;28;4312;-65
2023/09/03 00:52:19;;;;;;;17.77;13.50;;;;;;;14.60;100.00;101568.44;684811;28;1975;-65
2023/09/03 00:52:39;;;;;;;17.92;13.35;;;;;;;14.59;100.00;101571.09;684337;28;1143;-65
2023/09/03 00:52:59;;;;;;;18.00;13.60;;;;;;;14.57;100.00;101576.38;684775;28;1793;-64
2023/09/03 00:53:21;;;;;;;16.97;13.27;;;;;;;14.56;100.00;101572.00;686496;28;912;-65
2023/09/03 00:53:45;;;;;;;17.80;12.73;;;;;;;14.57;100.00;101572.88;688419;28;857;-65
2023/09/03 00:54:05;;;;;;;19.15;13.60;;;;;;;14.56;100.00;101568.50;684539;28;1830;-65
2023/09/03 00:54:26;;;;;;;18.57;13.43;;;;;;;14.55;100.00;101565.00;687256;28;928;-64
2023/09/03 00:54:47;;;;;;;19.53;13.80;;;;;;;14.55;100.00;101575.53;688720;28;4315;-65
2023/09/03 00:55:07;;;;;;;17.98;13.82;;;;;;;14.53;100.00;101569.38;682492;28;1733;-65
2023/09/03 00:55:29;;;;;;;17.73;13.53;;;;;;;14.53;100.00;101569.38;681489;29;914;-65
2023/09/03 00:55:49;;;;;;;19.05;13.63;;;;;;;14.53;100.00;101572.00;682636;28;833;-65
2023/09/03 00:56:10;;;;;;;19.17;13.80;;;;;;;14.51;100.00;101571.16;683418;28;2265;-65
2023/09/03 00:56:31;;;;;;;19.08;13.80;;;;;;;14.50;100.00;101571.19;686075;28;1348;-65
2023/09/03 00:56:54;;;;;;;19.40;13.60;;;;;;;14.47;100.00;101569.44;685529;28;1338;-65
2023/09/03 00:57:15;;;;;;;18.33;13.32;;;;;;;14.48;100.00;101573.78;685563;28;972;-65
2023/09/03 00:57:35;;;;;;;20.03;13.20;;;;;;;14.46;100.00;101580.84;688792;28;905;-65
2023/09/03 00:57:56;;;;;;;18.43;13.07;;;;;;;14.47;100.00;101578.19;684801;28;4545;-64
2023/09/03 00:58:17;;;;;;;17.70;13.25;;;;;;;14.46;100.00;101578.22;685299;28;1213;-65
2023/09/03 00:58:37;;;;;;;18.33;13.75;;;;;;;14.48;100.00;101571.16;684647;28;1424;-65
2023/09/03 00:59:00;;;;;;;18.20;13.50;;;;;;;14.48;100.00;101576.41;683944;28;1779;-65
2023/09/03 00:59:22;;;;;;;17.77;13.40;;;;;;;14.47;100.00;101577.34;681805;29;904;-65
2023/09/03 00:59:45;;;;;;;19.45;13.52;;;;;;;14.45;100.00;101586.97;682749;28;925;-64
2023/09/03 01:00:07;;;;;;;18.30;13.00;;;;;;;14.43;100.00;101575.59;680486;28;1757;-65
2023/09/03 01:00:29;;;;;;;18.85;13.43;;;;;;;14.41;100.00;101575.63;680026;29;932;-65
2023/09/03 01:00:50;;;;;;;18.13;13.57;;;;;;;14.41;100.00;101577.34;681553;28;4415;-65
2023/09/03 01:01:11;;;;;;;18.13;13.52;;;;;;;14.41;100.00;101579.97;681811;28;2474;-64
2023/09/03 01:01:32;;;;;;;18.50;13.40;;;;;;;14.41;100.00;101580.88;684424;28;1288;-65
2023/09/03 01:01:53;;;;;;;17.87;13.57;;;;;;;14.42;100.00;101581.75;681630;28;1165;-65
2023/09/03 01:02:17;;;;;;;18.05;13.30;;;;;;;14.41;100.00;101585.25;684243;28;1767;-64
2023/09/03 01:02:40;;;;;;;18.83;13.48;;;;;;;14.41;100.00;101585.25;686442;28;3214;-65
2023/09/03 01:03:02;;;;;;;18.80;13.63;;;;;;;14.41;100.00;101582.63;685344;28;1113;-64
2023/09/03 01:03:22;;;;;;;18.17;13.95;;;;;;;14.40;100.00;101589.66;686093;28;806;-64
2023/09/03 01:03:45;;;;;;;18.88;13.80;;;;;;;14.40;100.00;101586.13;684978;28;4309;-65
2023/09/03 01:04:06;;;;;;;17.52;13.20;;;;;;;14.38;100.00;101587.91;682399;28;1568;-65
2023/09/03 01:04:27;;;;;;;17.43;13.03;;;;;;;14.39;100.00;101589.66;684296;28;829;-65
2023/09/03 01:04:47;;;;;;;17.63;13.10;;;;;;;14.38;100.00;101590.53;684027;28;1217;-65
2023/09/03 01:05:07;;;;;;;17.63;13.38;;;;;;;14.38;100.00;101590.53;683288;28;1748;-65
2023/09/03 01:05:28;;;;;;;18.43;13.53;;;;;;;14.39;100.00;101593.16;687460;28;1486;-65
2023/09/03 01:05:49;;;;;;;18.17;13.73;;;;;;;14.39;100.00;101593.16;689766;28;960;-65
2023/09/03 01:06:09;;;;;;;19.45;14.05;;;;;;;14.41;100.00;101598.41;688232;28;1759;-64
2023/09/03 01:06:30;;;;;;;19.50;13.53;;;;;;;14.40;100.00;101592.28;687146;28;1315;-65
2023/09/03 01:06:51;;;;;;;20.63;13.80;;;;;;;14.39;100.00;101600.19;684687;28;4542;-65
2023/09/03 01:07:14;;;;;;;20.30;13.95;;;;;;;14.37;100.00;101599.28;685197;28;1565;-65
2023/09/03 01:07:35;;;;;;;18.38;13.27;;;;;;;14.38;100.00;101595.78;686804;28;861;-64
2023/09/03 01:07:57;;;;;;;17.05;13.35;;;;;;;14.37;100.00;101596.66;687223;28;762;-64
2023/09/03 01:08:18;;;;;;;16.95;13.27;;;;;;;14.34;100.00;101600.19;686672;28;1410;-65
2023/09/03 01:08:39;;;;;;;17.42;13.15;;;;;;;14.33;100.00;101597.56;689516;28;1233;-65
2023/09/03 01:09:01;;;;;;;18.63;13.52;;;;;;;14.33;100.00;101597.56;686374;28;1348;-64
2023/09/03 01:09:21;;;;;;;18.42;13.88;;;;;;;14.34;100.00;101605.44;686486;28;1261;-65
2023/09/03 01:09:43;;;;;;;19.20;14.48;;;;;;;14.36;100.00;101601.06;685690;28;4363;-64
2023/09/03 01:10:04;;;;;;;19.33;13.73;;;;;;;14.37;100.00;101604.56;685618;28;2178;-64
2023/09/03 01:10:36;;;;;;;19.95;14.15;;;;;;;14.40;100.00;101609.78;686331;28;1400;-64
2023/09/03 01:10:57;;;;;;;19.05;13.75;;;;;;;14.40;100.00;101600.16;689278;28;1059;-65
2023/09/03 01:11:39;;;;;;;18.83;13.43;;;;;;;14.38;100.00;101603.69;687139;28;944;-64
2023/09/03 01:12:19;;;;;;;20.15;13.85;;;;;;;14.36;100.00;101610.69;688195;28;1743;-64
2023/09/03 01:12:51;;;;;;;17.17;13.25;;;;;;;14.36;100.00;101608.06;686816;28;4483;-64
2023/09/03 01:13:53;;;;;;;19.45;13.35;;;;;;;14.34;100.00;101609.84;687789;28;1434;-65
2023/09/03 01:14:31;;;;;;;17.63;13.15;;;;;;;14.33;100.00;101605.47;688304;28;1853;-64
2023/09/03 01:15:06;;;;;;;19.67;13.95;;;;;;;14.35;100.00;101611.59;689439;28;1663;-64
2023/09/03 01:15:32;;;;;;;19.00;13.90;;;;;;;14.36;100.00;101613.31;688132;28;941;-64
2023/09/03 01:15:54;;;;;;;18.05;14.13;;;;;;;14.34;100.00;101613.34;688262;28;4537;-65
2023/09/03 01:16:25;;;;;;;18.17;13.90;;;;;;;14.34;100.00;101615.09;691563;28;1159;-65
2023/09/03 01:17:06;;;;;;;22.02;14.52;;;;;;;14.35;100.00;101611.59;686983;28;941;-65
2023/09/03 01:17:52;;;;;;;18.67;14.15;;;;;;;14.36;100.00;101618.59;686763;28;899;-65
2023/09/03 01:18:24;;;;;;;22.25;15.05;;;;;;;14.37;100.00;101615.09;685176;28;2429;-64
2023/09/03 01:18:46;;;;;;;21.52;14.80;;;;;;;14.38;100.00;101616.84;690072;28;4508;-65
2023/09/03 01:19:28;;;;;;;21.08;14.88;;;;;;;14.37;100.00;101621.22;688111;28;1772;-65
2023/09/03 01:19:59;;;;;;;20.48;14.48;;;;;;;14.38;100.00;101616.84;688457;28;1003;-67
2023/09/03 01:20:31;;;;;;;18.83;14.15;;;;;;;14.36;100.00;101622.09;689207;28;904;-64
2023/09/03 01:20:52;;;;;;;20.25;14.77;;;;;;;14.36;100.00;101622.09;689257;28;820;-65
2023/09/03 01:21:42;;;;;;;19.20;14.17;;;;;;;14.38;100.00;101622.09;688720;28;2468;-65
2023/09/03 01:22:16;;;;;;;20.55;14.50;;;;;;;14.37;100.00;101615.97;685520;28;7375;-65
2023/09/03 01:23:07;;;;;;;20.88;14.15;;;;;;;14.37;100.00;101617.72;686343;28;927;-65
2023/09/03 01:23:37;;;;;;;20.02;14.70;;;;;;;14.36;100.00;101616.84;683577;28;2087;-65
2023/09/03 01:24:35;;;;;;;19.40;14.52;;;;;;;14.35;100.00;101617.72;684331;28;1734;-64
2023/09/03 01:25:24;;;;;;;23.23;15.93;;;;;;;14.37;100.00;101621.22;686042;28;4423;-64
2023/09/03 01:26:07;;;;;;;21.95;15.80;;;;;;;14.38;100.00;101624.72;688815;28;1102;-65
2023/09/03 01:26:46;;;;;;;20.55;15.15;;;;;;;14.37;100.00;101622.97;689800;28;924;-64
2023/09/03 01:27:38;;;;;;;23.45;15.88;;;;;;;14.35;100.00;101624.75;686801;28;1697;-64
2023/09/03 01:28:33;;;;;;;21.70;15.40;;;;;;;14.36;100.00;101629.09;685075;28;4756;-65
2023/09/03 01:28:55;;;;;;;22.52;15.43;;;;;;;14.36;100.00;101630.00;686615;28;892;-65
2023/09/03 01:29:17;;;;;;;22.85;15.85;;;;;;;14.37;100.00;101628.22;687928;28;1492;-64
2023/09/03 01:29:41;;;;;;;23.95;16.20;;;;;;;14.38;100.00;101622.09;687932;28;912;-64
2023/09/03 01:30:02;;;;;;;20.73;15.60;;;;;;;14.38;100.00;101624.72;689534;28;1325;-64
2023/09/03 01:30:23;;;;;;;22.45;15.25;;;;;;;14.38;100.00;101622.97;691259;28;781;-64
2023/09/03 01:30:43;;;;;;;22.23;15.52;;;;;;;14.39;100.00;101624.72;690880;28;4381;-65
2023/09/03 01:31:08;;;;;;;21.92;15.75;;;;;;;14.39;100.00;101623.84;688738;28;1772;-65
2023/09/03 01:31:30;;;;;;;23.45;15.80;;;;;;;14.40;100.00;101617.69;687818;28;905;-64
2023/09/03 01:31:51;;;;;;;21.40;15.18;;;;;;;14.39;100.00;101624.72;689433;28;936;-65
2023/09/03 01:32:12;;;;;;;23.67;16.00;;;;;;;14.39;100.00;101624.72;688123;28;1981;-65
2023/09/03 01:32:36;;;;;;;24.00;16.60;;;;;;;14.41;100.00;101620.34;689673;28;1006;-64
2023/09/03 01:32:58;;;;;;;25.05;17.23;;;;;;;14.42;100.00;101615.94;692313;28;956;-64
2023/09/03 01:33:19;;;;;;;24.27;17.17;;;;;;;14.41;100.00;101616.81;687399;28;1476;-64
2023/09/03 01:33:44;;;;;;;23.98;16.73;;;;;;;14.43;100.00;101615.06;685395;28;4542;-65
2023/09/03 01:34:05;;;;;;;23.13;16.00;;;;;;;14.44;100.00;101611.53;685685;28;2243;-64
2023/09/03 01:34:26;;;;;;;22.77;15.80;;;;;;;14.43;100.00;101622.97;686613;28;1028;-64
2023/09/03 01:34:47;;;;;;;22.58;15.60;;;;;;;14.42;100.00;101618.56;683418;28;762;-65
2023/09/03 01:35:08;;;;;;;24.08;15.68;;;;;;;14.43;100.00;101617.69;681953;28;1916;-64
2023/09/03 01:35:29;;;;;;;23.07;15.80;;;;;;;14.42;100.00;101615.94;685271;28;790;-65
2023/09/03 01:35:54;;;;;;;23.50;15.73;;;;;;;14.43;100.00;101615.06;689259;28;1036;-65
2023/09/03 01:36:16;;;;;;;25.27;16.52;;;;;;;14.43;100.00;101622.97;688358;28;1715;-65
2023/09/03 01:36:36;;;;;;;25.27;16.17;;;;;;;14.43;100.00;101615.06;687997;28;1387;-64
2023/09/03 01:36:57;;;;;;;23.25;15.35;;;;;;;14.44;100.00;101616.78;689151;28;5060;-65
2023/09/03 01:37:18;;;;;;;23.43;16.70;;;;;;;14.43;100.00;101621.19;685812;28;2376;-64
2023/09/03 01:37:39;;;;;;;24.25;16.67;;;;;;;14.42;100.00;101616.81;686709;28;1019;-65
2023/09/03 01:37:59;;;;;;;22.93;15.60;;;;;;;14.45;100.00;101623.81;685883;28;2355;-65
2023/09/03 01:38:20;;;;;;;23.05;15.80;;;;;;;14.44;100.00;101619.41;680326;29;885;-65
2023/09/03 01:38:41;;;;;;;24.15;16.10;;;;;;;14.43;100.00;101615.06;682709;28;5667;-64
2023/09/03 01:39:03;;;;;;;22.70;15.63;;;;;;;14.43;100.00;101621.19;682628;28;1899;-65
2023/09/03 01:39:24;;;;;;;23.70;16.35;;;;;;;14.43;100.00;101629.06;685821;28;1652;-65
2023/09/03 01:39:45;;;;;;;24.20;17.45;;;;;;;14.43;100.00;101621.19;684910;28;5677;-64
2023/09/03 01:40:07;;;;;;;23.67;16.23;;;;;;;14.43;100.00;101615.06;684634;28;969;-65
2023/09/03 01:40:27;;;;;;;23.50;16.58;;;;;;;14.43;100.00;101617.69;685733;28;947;-64
2023/09/03 01:40:50;;;;;;;23.90;16.93;;;;;;;14.43;100.00;101620.31;685722;28;896;-65
2023/09/03 01:41:10;;;;;;;23.42;16.27;;;;;;;14.43;100.00;101618.56;686565;28;2464;-65
2023/09/03 01:41:36;;;;;;;25.13;16.97;;;;;;;14.44;100.00;101622.03;690182;28;1034;-65
2023/09/03 01:41:57;;;;;;;22.92;16.77;;;;;;;14.45;100.00;101618.53;689783;28;1007;-65
2023/09/03 01:42:17;;;;;;;23.63;16.73;;;;;;;14.45;100.00;101618.53;691574;28;1136;-65
2023/09/03 01:42:38;;;;;;;25.33;16.98;;;;;;;14.45;100.00;101623.81;692150;28;4618;-64
2023/09/03 01:42:59;;;;;;;23.97;16.90;;;;;;;14.44;100.00;101622.03;689343;28;1543;-65
2023/09/03 01:43:19;;;;;;;22.00;16.25;;;;;;;14.45;100.00;101621.16;689759;28;924;-65
2023/09/03 01:43:41;;;;;;;22.13;15.98;;;;;;;14.45;100.00;101618.53;689673;28;951;-65
2023/09/03 01:44:02;;;;;;;23.58;16.35;;;;;;;14.46;100.00;101615.03;685544;28;2448;-65
2023/09/03 01:44:23;;;;;;;22.60;16.20;;;;;;;14.45;100.00;101618.53;686829;28;1122;-65
2023/09/03 01:44:44;;;;;;;22.83;16.13;;;;;;;14.43;100.00;101626.44;686782;28;885;-65
2023/09/03 01:45:05;;;;;;;25.48;17.17;;;;;;;14.43;100.00;101623.81;687949;28;2472;-65
2023/09/03 01:45:45;;;;;;;24.10;17.13;;;;;;;14.42;100.00;101624.69;689788;28;916;-65
2023/09/03 01:46:56;;;;;;;23.70;16.63;;;;;;;14.43;100.00;101623.81;687420;28;6147;-64